Terminal Aerodrome Forecast
Issued by NWS Louisville, KY

Home | Current Version | Previous Version | Text Only | Print | Product List | Glossary On
Versions: 1 2 3 4 5 6 7 8 9 10 11 12 13
000
FTUS43 KLMK 201400 AAA
TAFSDF
TAF AMD
KSDF 201418Z 2014/2118 04004KT P6SM FEW012 BKN025
     FM201600 VRB04KT P6SM SCT025 BKN035
     FM210800 VRB04KT P6SM SCT015=

USA.gov is the U.S. government's official web portal to all federal, state and local government web resources and services.